Time;durP1;ratioP1;P1;durP2;ratioP2;P2;SDS_P1;SDS_P2;PMS_P1;PMS_P2;Temp;Humidity;BMP_temperature;BMP_pressure;BME280_temperature;BME280_humidity;BME280_pressure;Samples;Min_cycle;Max_cycle;Signal;HPM_P1;HPM_P2
2022/02/11 03:54:12;;;;;;;24.25;12.60;;;9.10;83.90;;;;;;4727177;30;20056;-83
2022/02/11 04:21:37;;;;;;;24.52;12.45;;;8.80;86.00;;;;;;4713406;30;20049;-82
2022/02/11 04:56:43;;;;;;;22.27;10.43;;;9.30;85.40;;;;;;4709148;30;20104;-83
2022/02/11 05:01:53;;;;;;;17.67;10.48;;;9.40;84.80;;;;;;4730226;30;20033;-83
2022/02/11 05:04:20;;;;;;;21.90;11.15;;;9.50;84.80;;;;;;4725220;30;20304;-83
2022/02/11 05:06:45;;;;;;;19.73;10.02;;;9.50;84.50;;;;;;4696403;30;20037;-83
2022/02/11 05:09:12;;;;;;;20.52;10.27;;;9.50;84.30;;;;;;4710659;30;20055;-83
2022/02/11 05:11:37;;;;;;;15.07;8.73;;;9.50;84.20;;;;;;4725543;30;20087;-83
2022/02/11 05:14:06;;;;;;;21.58;9.95;;;9.50;84.10;;;;;;4707789;30;20049;-81
2022/02/11 05:16:31;;;;;;;22.73;10.52;;;9.60;84.10;;;;;;4716003;30;20041;-82
2022/02/11 05:18:57;;;;;;;23.63;10.15;;;9.60;83.90;;;;;;4696098;30;20040;-83
2022/02/11 05:21:23;;;;;;;17.60;10.10;;;9.70;83.60;;;;;;4710701;30;20040;-83
2022/02/11 05:23:49;;;;;;;19.13;9.70;;;9.70;83.30;;;;;;4725091;30;20233;-82
2022/02/11 05:26:15;;;;;;;20.45;9.60;;;9.70;83.10;;;;;;4710520;30;20044;-82
2022/02/11 05:28:41;;;;;;;31.73;11.43;;;9.70;83.00;;;;;;4710294;30;20269;-82
2022/02/11 05:31:06;;;;;;;22.00;10.63;;;9.70;83.10;;;;;;4693014;30;20037;-83
2022/02/11 05:33:32;;;;;;;19.77;10.55;;;9.70;83.20;;;;;;4710542;30;20045;-83
2022/02/11 05:35:58;;;;;;;19.83;9.93;;;9.50;83.50;;;;;;4710716;30;20037;-82
2022/02/11 05:38:24;;;;;;;20.90;10.18;;;9.50;83.80;;;;;;4713886;30;20268;-83
2022/02/11 05:40:50;;;;;;;25.55;10.30;;;9.40;84.30;;;;;;4713873;30;20043;-82
2022/02/11 05:43:16;;;;;;;28.23;10.88;;;9.30;84.70;;;;;;4713687;30;20232;-83
2022/02/11 05:45:42;;;;;;;21.92;10.15;;;9.30;84.90;;;;;;4698965;30;20055;-83
2022/02/11 05:48:10;;;;;;;23.17;10.80;;;9.30;85.20;;;;;;4713653;30;20061;-83
2022/02/11 05:50:36;;;;;;;24.40;10.75;;;9.20;85.10;;;;;;4713935;30;20045;-83
2022/02/11 05:53:03;;;;;;;18.45;9.60;;;9.20;85.10;;;;;;4713558;30;20044;-82
2022/02/11 05:55:29;;;;;;;20.88;10.45;;;9.20;85.50;;;;;;4713522;30;20125;-83
2022/02/11 05:57:55;;;;;;;24.58;11.43;;;9.20;85.60;;;;;;4699102;30;20048;-83
2022/02/11 06:00:20;;;;;;;23.48;10.25;;;9.20;85.90;;;;;;4698954;30;20033;-83
2022/02/11 06:02:46;;;;;;;26.92;10.85;;;9.20;85.90;;;;;;4713365;30;20033;-83
2022/02/11 06:05:16;;;;;;;16.92;9.95;;;9.20;85.60;;;;;;4727621;30;20345;-82
2022/02/11 06:07:41;;;;;;;21.92;10.40;;;9.10;85.70;;;;;;4713789;30;20083;-83
2022/02/11 06:10:07;;;;;;;23.92;9.93;;;9.20;85.70;;;;;;4710732;30;20045;-82
2022/02/11 06:12:33;;;;;;;23.05;9.20;;;9.10;85.50;;;;;;4696372;30;20048;-82
2022/02/11 06:14:59;;;;;;;23.92;8.88;;;9.10;85.40;;;;;;4703671;30;20037;-83
2022/02/11 06:17:25;;;;;;;18.58;9.82;;;9.20;85.40;;;;;;4708225;30;20042;-82
2022/02/11 06:19:51;;;;;;;24.30;9.88;;;9.10;85.10;;;;;;4722892;30;20089;-83
2022/02/11 06:22:17;;;;;;;22.30;9.95;;;9.10;85.00;;;;;;4708891;30;20044;-82
2022/02/11 06:24:43;;;;;;;19.80;9.52;;;9.20;84.90;;;;;;4727430;30;20108;-83
2022/02/11 06:27:09;;;;;;;19.42;10.48;;;9.20;84.60;;;;;;4708854;30;20241;-82
2022/02/11 06:29:35;;;;;;;23.95;9.40;;;9.20;84.40;;;;;;4694139;30;20037;-82
2022/02/11 06:32:03;;;;;;;26.47;9.77;;;9.30;84.20;;;;;;4688388;30;20041;-83
2022/02/11 06:34:29;;;;;;;22.05;10.77;;;9.30;83.80;;;;;;4712880;30;20337;-82
2022/02/11 06:36:54;;;;;;;20.70;9.60;;;9.40;83.90;;;;;;4712766;30;20099;-83
2022/02/11 06:39:24;;;;;;;29.30;9.68;;;9.40;84.00;;;;;;4696012;30;20417;-83
2022/02/11 06:41:53;;;;;;;20.25;9.82;;;9.40;84.50;;;;;;4709895;30;20053;-82
2022/02/11 06:44:20;;;;;;;29.70;11.77;;;9.50;83.70;;;;;;4712431;30;20043;-82
2022/02/11 06:46:46;;;;;;;22.35;9.82;;;9.50;83.50;;;;;;4694219;30;20065;-82
2022/02/11 06:49:12;;;;;;;31.02;10.02;;;9.60;83.70;;;;;;4723216;30;20044;-82
2022/02/11 06:51:38;;;;;;;25.60;10.35;;;9.50;83.50;;;;;;4691175;30;20337;-82
2022/02/11 06:54:03;;;;;;;21.90;9.85;;;9.60;83.30;;;;;;4720115;30;20044;-83
2022/02/11 06:56:29;;;;;;;25.88;9.68;;;9.60;83.10;;;;;;4706494;30;20032;-82
2022/02/11 06:58:55;;;;;;;20.45;9.38;;;9.70;83.10;;;;;;4721420;30;20029;-83
2022/02/11 07:01:22;;;;;;;17.88;10.23;;;9.70;83.10;;;;;;4694621;30;20272;-82
2022/02/11 07:03:48;;;;;;;19.67;8.32;;;9.70;83.20;;;;;;4707158;30;20036;-82
2022/02/11 07:06:14;;;;;;;25.98;10.88;;;9.70;83.00;;;;;;4707699;30;20116;-82
2022/02/11 07:08:40;;;;;;;31.70;10.43;;;9.80;83.00;;;;;;4707915;30;20026;-82
2022/02/11 07:11:06;;;;;;;22.42;10.85;;;9.80;83.10;;;;;;4705543;30;20077;-82
2022/02/11 07:13:32;;;;;;;22.08;10.57;;;9.80;83.20;;;;;;4701850;30;20033;-82
2022/02/11 07:15:58;;;;;;;30.88;10.98;;;9.80;83.30;;;;;;4707916;30;20283;-82
2022/02/11 07:18:23;;;;;;;25.23;11.48;;;9.80;83.20;;;;;;4718089;30;20044;-82
2022/02/11 07:20:49;;;;;;;34.25;11.55;;;9.80;83.40;;;;;;4721405;30;20041;-82
2022/02/11 07:23:16;;;;;;;23.50;10.50;;;9.90;83.60;;;;;;4718885;30;20045;-82
2022/02/11 07:25:42;;;;;;;20.95;10.57;;;9.90;83.60;;;;;;4725180;30;20029;-82
2022/02/11 07:28:08;;;;;;;26.08;10.38;;;9.90;83.60;;;;;;4703237;30;20238;-82
2022/02/11 07:30:34;;;;;;;25.07;9.87;;;9.90;83.40;;;;;;4716981;30;20045;-81
2022/02/11 07:33:00;;;;;;;20.38;9.80;;;9.90;83.70;;;;;;4691283;30;20038;-83
2022/02/11 07:35:27;;;;;;;29.90;11.17;;;9.90;83.80;;;;;;4721051;30;20029;-83
2022/02/11 07:37:53;;;;;;;31.60;12.30;;;9.90;84.00;;;;;;4707673;30;20336;-83
2022/02/11 07:40:20;;;;;;;26.77;9.93;;;9.90;84.10;;;;;;4720646;30;20328;-83
2022/02/11 07:42:47;;;;;;;30.45;11.05;;;9.90;84.10;;;;;;4720672;30;20025;-83
2022/02/11 07:45:15;;;;;;;30.25;10.65;;;9.90;84.10;;;;;;4708077;30;20045;-83
2022/02/11 07:47:40;;;;;;;34.17;11.55;;;10.00;85.00;;;;;;4724880;30;20057;-81
2022/02/11 07:50:08;;;;;;;25.17;9.98;;;9.90;85.50;;;;;;4725430;30;20043;-81
2022/02/11 07:52:35;;;;;;;32.58;10.73;;;9.90;86.10;;;;;;4719727;30;20067;-83
2022/02/11 07:55:01;;;;;;;30.08;11.07;;;9.90;87.30;;;;;;4725423;30;20695;-83
2022/02/11 07:57:27;;;;;;;28.63;11.40;;;9.90;87.70;;;;;;4710612;30;20076;-83
2022/02/11 07:59:53;;;;;;;30.17;11.48;;;10.00;87.90;;;;;;4709940;30;20045;-82
2022/02/11 08:02:18;;;;;;;29.48;11.45;;;10.00;88.20;;;;;;4725322;30;20026;-82
2022/02/11 08:04:44;;;;;;;26.50;11.20;;;10.00;88.80;;;;;;4693436;30;20041;-82
2022/02/11 08:07:10;;;;;;;29.08;13.23;;;10.00;89.30;;;;;;4710591;30;20075;-82
2022/02/11 08:09:36;;;;;;;31.02;12.73;;;10.10;90.20;;;;;;4707880;30;20037;-82
2022/02/11 08:12:02;;;;;;;32.97;12.38;;;10.10;90.50;;;;;;4692740;30;20067;-82
2022/02/11 08:14:30;;;;;;;28.70;12.52;;;10.10;90.60;;;;;;4717039;30;20036;-82
2022/02/11 08:16:57;;;;;;;24.45;11.25;;;10.00;90.70;;;;;;4707639;30;20127;-82
2022/02/11 08:19:23;;;;;;;33.30;13.55;;;10.10;90.80;;;;;;4710115;30;20371;-82
2022/02/11 08:21:50;;;;;;;45.80;17.70;;;10.10;91.00;;;;;;4710622;30;20049;-82
2022/02/11 08:24:16;;;;;;;28.95;14.80;;;10.10;92.00;;;;;;4725004;30;20040;-81
2022/02/11 08:26:43;;;;;;;27.08;14.98;;;10.10;91.80;;;;;;4710569;30;20348;-82
2022/02/11 08:29:09;;;;;;;30.17;13.75;;;10.10;91.90;;;;;;4721949;30;20371;-82
2022/02/11 08:31:38;;;;;;;32.45;15.02;;;10.10;92.10;;;;;;4710790;30;20037;-81
2022/02/11 08:34:05;;;;;;;61.55;33.35;;;10.10;92.30;;;;;;4724815;30;20240;-81
2022/02/11 08:36:31;;;;;;;49.95;29.63;;;10.10;92.50;;;;;;4724665;30;20045;-82
2022/02/11 08:38:57;;;;;;;44.58;24.20;;;10.20;92.70;;;;;;4724688;30;20037;-82
2022/02/11 08:41:23;;;;;;;44.10;19.70;;;10.10;92.90;;;;;;4696204;30;20037;-83
2022/02/11 08:43:49;;;;;;;41.78;19.70;;;10.10;93.70;;;;;;4725698;30;20036;-82
2022/02/11 08:46:15;;;;;;;41.33;19.42;;;10.00;94.30;;;;;;4695870;30;20354;-82
2022/02/11 08:48:41;;;;;;;35.72;16.63;;;10.10;94.60;;;;;;4710034;30;20244;-82
2022/02/11 08:51:07;;;;;;;35.65;16.88;;;10.10;94.60;;;;;;4724401;30;20039;-82
2022/02/11 08:53:37;;;;;;;40.17;20.15;;;10.20;94.60;;;;;;4695720;30;20099;-82
2022/02/11 08:56:05;;;;;;;30.55;17.42;;;10.20;94.80;;;;;;4724640;30;20325;-81
2022/02/11 08:58:32;;;;;;;38.33;20.63;;;10.20;95.00;;;;;;4724583;30;20048;-82
2022/02/11 09:00:58;;;;;;;32.08;17.70;;;10.30;95.10;;;;;;4710098;30;20337;-82
2022/02/11 09:03:26;;;;;;;36.97;18.77;;;10.30;94.90;;;;;;4695603;30;20275;-82
2022/02/11 09:05:52;;;;;;;35.58;17.35;;;10.30;94.90;;;;;;4724238;30;20329;-82
2022/02/11 09:08:18;;;;;;;39.47;21.00;;;10.40;95.20;;;;;;4718935;30;20076;-82
2022/02/11 09:10:48;;;;;;;36.22;18.50;;;10.30;95.70;;;;;;4710303;30;20245;-82
2022/02/11 09:13:15;;;;;;;39.58;18.38;;;10.40;96.00;;;;;;4707755;30;20075;-82
2022/02/11 09:15:40;;;;;;;68.43;35.17;;;10.30;96.10;;;;;;4727847;30;20348;-82
2022/02/11 09:18:07;;;;;;;50.33;24.50;;;10.40;96.20;;;;;;4713299;30;20099;-82
2022/02/11 09:20:33;;;;;;;28.87;12.67;;;10.40;96.10;;;;;;4727643;30;20044;-82
2022/02/11 09:22:59;;;;;;;21.08;10.45;;;10.30;95.30;;;;;;4713393;30;20287;-82
2022/02/11 09:25:26;;;;;;;30.05;10.73;;;10.20;95.10;;;;;;4699092;30;20107;-82
2022/02/11 09:27:52;;;;;;;16.00;9.25;;;10.30;95.10;;;;;;4710879;30;20048;-82
2022/02/11 09:30:22;;;;;;;16.95;9.38;;;10.30;94.90;;;;;;4710215;30;20042;-82
2022/02/11 09:32:52;;;;;;;14.25;7.75;;;10.30;95.00;;;;;;4728043;30;20084;-82
2022/02/11 09:35:19;;;;;;;18.55;9.15;;;10.30;94.60;;;;;;4727641;30;20044;-82
2022/02/11 09:37:45;;;;;;;16.42;6.38;;;10.30;94.90;;;;;;4713017;30;20045;-82
2022/02/11 09:40:13;;;;;;;14.77;7.00;;;10.20;94.20;;;;;;4712951;30;20230;-82
2022/02/11 09:42:39;;;;;;;13.68;5.70;;;10.20;94.50;;;;;;4713020;30;20037;-83
2022/02/11 09:45:10;;;;;;;12.50;6.25;;;10.10;94.60;;;;;;4727219;30;20694;-82
2022/02/11 09:47:37;;;;;;;13.85;5.97;;;10.10;95.30;;;;;;4727228;30;20092;-82
2022/02/11 09:50:05;;;;;;;8.75;4.45;;;10.10;95.30;;;;;;4695880;30;20250;-82
2022/02/11 09:52:52;;;;;;;7.68;4.25;;;10.10;95.70;;;;;;4709721;30;20114;-83
2022/02/11 09:55:34;;;;;;;;;;;10.10;96.00;;;;;;4713785;30;20210;-82
2022/02/11 09:58:30;;;;;;;6.82;4.05;;;10.00;96.40;;;;;;4727418;30;19927;-82
2022/02/11 10:00:56;;;;;;;7.78;3.67;;;9.90;96.80;;;;;;4747173;30;20052;-82
2022/02/11 10:03:26;;;;;;;10.85;3.63;;;9.90;96.80;;;;;;4746899;30;20035;-82
2022/02/11 10:06:00;;;;;;;9.52;4.30;;;9.90;96.70;;;;;;4761344;30;20048;-82
2022/02/11 10:08:30;;;;;;;7.32;3.22;;;9.90;96.90;;;;;;4761352;30;20219;-82
2022/02/11 10:10:58;;;;;;;7.03;3.20;;;9.90;96.90;;;;;;4761592;30;20287;-82
2022/02/11 10:13:33;;;;;;;6.40;3.90;;;10.00;96.80;;;;;;4731990;30;20051;-82
2022/02/11 10:16:08;;;;;;;9.80;3.50;;;10.10;97.00;;;;;;4759755;30;20066;-82
2022/02/11 10:18:39;;;;;;;8.80;3.80;;;10.10;96.80;;;;;;4760065;30;20040;-82
2022/02/11 10:21:12;;;;;;;8.52;4.10;;;10.10;97.00;;;;;;4760261;30;20205;-82
2022/02/11 10:23:42;;;;;;;8.02;4.10;;;10.10;96.90;;;;;;4761168;30;20067;-82
2022/02/11 10:26:16;;;;;;;10.15;4.32;;;10.20;96.60;;;;;;4746643;30;20059;-82
2022/02/11 10:28:48;;;;;;;6.57;3.75;;;10.10;96.60;;;;;;4731793;30;20115;-82
2022/02/11 10:31:19;;;;;;;6.40;3.33;;;10.20;96.70;;;;;;4760784;30;20061;-82
2022/02/11 10:34:00;;;;;;;7.78;3.30;;;10.20;96.70;;;;;;4746380;30;20039;-82
2022/02/11 10:36:30;;;;;;;5.88;2.95;;;10.10;96.60;;;;;;4731671;30;20128;-79
2022/02/11 10:39:16;;;;;;;14.20;3.08;;;10.10;96.40;;;;;;4717822;30;20029;-83
2022/02/11 10:41:52;;;;;;;7.55;3.40;;;10.00;96.30;;;;;;4748071;30;20033;-82
2022/02/11 10:44:19;;;;;;;;;;;10.00;96.70;;;;;;4722391;30;20230;-82
2022/02/11 10:46:47;;;;;;;5.88;4.07;;;9.90;96.90;;;;;;4707879;30;19997;-83
2022/02/11 10:49:15;;;;;;;5.05;3.08;;;9.90;97.40;;;;;;4725242;30;20048;-83
2022/02/11 10:51:43;;;;;;;9.52;2.80;;;9.80;97.30;;;;;;4693666;30;20249;-82
2022/02/11 10:54:33;;;;;;;5.40;2.58;;;9.80;97.40;;;;;;4720344;30;20033;-82
2022/02/11 10:57:01;;;;;;;7.60;2.55;;;9.70;97.70;;;;;;4740850;30;20336;-82
2022/02/11 10:59:30;;;;;;;7.60;2.72;;;9.70;98.30;;;;;;4715039;30;20287;-82
2022/02/11 11:01:58;;;;;;;5.00;2.42;;;9.70;97.90;;;;;;4722966;30;20029;-82
2022/02/11 11:04:25;;;;;;;4.60;2.13;;;9.70;97.30;;;;;;4705896;30;20033;-81
2022/02/11 11:06:53;;;;;;;3.90;2.08;;;9.70;96.80;;;;;;4720488;30;20340;-82
2022/02/11 11:09:20;;;;;;;2.70;1.90;;;9.70;97.10;;;;;;4709670;30;20045;-82
2022/02/11 11:11:47;;;;;;;7.55;2.55;;;9.70;96.50;;;;;;4705947;30;20075;-82
2022/02/11 11:14:16;;;;;;;3.70;2.35;;;9.80;96.50;;;;;;4724204;30;20283;-82
2022/02/11 11:16:44;;;;;;;5.22;1.88;;;10.00;96.60;;;;;;4708912;30;20052;-82
2022/02/11 11:19:11;;;;;;;4.22;2.33;;;10.00;96.00;;;;;;4720558;30;20052;-83
2022/02/11 11:21:41;;;;;;;3.67;2.13;;;10.10;95.60;;;;;;4726374;30;20033;-82
2022/02/11 11:24:08;;;;;;;3.47;2.28;;;10.10;95.40;;;;;;4725442;30;20342;-82
2022/02/11 11:26:47;;;;;;;3.83;1.80;;;10.00;95.20;;;;;;4695452;30;20048;-82
2022/02/11 11:29:18;;;;;;;5.03;2.35;;;10.10;95.50;;;;;;4720806;30;20033;-83
2022/02/11 11:32:02;;;;;;;2.38;1.42;;;10.20;95.30;;;;;;4691291;30;20138;-83
2022/02/11 11:34:34;;;;;;;7.50;2.08;;;10.10;95.10;;;;;;4705433;30;20033;-83
2022/02/11 11:37:08;;;;;;;5.20;2.33;;;10.10;94.50;;;;;;4722529;30;20058;-83
2022/02/11 11:39:35;;;;;;;4.07;1.85;;;10.10;95.00;;;;;;4720452;30;20033;-83
2022/02/11 11:42:17;;;;;;;2.85;2.10;;;10.10;95.00;;;;;;4716812;30;20071;-83
2022/02/11 11:44:54;;;;;;;3.25;2.38;;;10.20;94.80;;;;;;4733620;30;20343;-83
2022/02/11 11:47:33;;;;;;;2.92;1.77;;;10.20;94.40;;;;;;4703808;30;20069;-82
2022/02/11 11:50:00;;;;;;;2.55;1.67;;;10.20;93.50;;;;;;4716910;30;20237;-83
2022/02/11 11:52:47;;;;;;;2.25;1.80;;;10.00;93.50;;;;;;4711117;30;20329;-83
2022/02/11 11:55:17;;;;;;;;;;;10.00;93.50;;;;;;4729737;30;20353;-83
2022/02/11 11:57:43;;;;;;;3.28;2.00;;;10.00;93.50;;;;;;4724128;30;19926;-83
2022/02/11 12:00:09;;;;;;;2.83;1.52;;;10.00;93.30;;;;;;4724009;30;20021;-83
2022/02/11 12:02:38;;;;;;;5.35;2.03;;;10.00;92.70;;;;;;4728289;30;20228;-83
2022/02/11 12:05:04;;;;;;;2.63;1.98;;;10.10;92.80;;;;;;4714646;30;20037;-83
2022/02/11 12:07:34;;;;;;;4.07;2.45;;;10.10;92.60;;;;;;4743250;30;20053;-82
2022/02/11 12:10:04;;;;;;;5.22;2.30;;;10.10;92.30;;;;;;4713637;30;20268;-82
2022/02/11 12:12:33;;;;;;;3.90;2.35;;;10.10;92.00;;;;;;4713114;30;20053;-83
2022/02/11 12:15:02;;;;;;;7.60;2.00;;;10.00;91.80;;;;;;4727470;30;20036;-82
2022/02/11 12:17:28;;;;;;;5.00;1.92;;;10.00;91.90;;;;;;4720486;30;20044;-83
2022/02/11 12:19:56;;;;;;;2.80;2.00;;;10.10;91.60;;;;;;4691219;30;20029;-83
2022/02/11 12:22:22;;;;;;;;;;;10.10;91.50;;;;;;4693994;30;20033;-83
2022/02/11 12:27:46;;;;;;;4.65;1.75;;;10.10;91.00;;;;;;4724331;30;19938;-82
2022/02/11 12:30:22;;;;;;;5.03;1.55;;;10.20;90.50;;;;;;4720052;30;20052;-82
2022/02/11 12:32:57;;;;;;;1.90;1.52;;;10.10;90.80;;;;;;4709871;30;20048;-83
2022/02/11 12:35:31;;;;;;;1.73;1.35;;;10.10;90.80;;;;;;4724750;30;20358;-83
2022/02/11 12:37:59;;;;;;;9.43;1.77;;;9.90;90.00;;;;;;4710134;30;20185;-82
2022/02/11 12:40:28;;;;;;;2.50;1.55;;;9.90;90.40;;;;;;4710090;30;20358;-83
2022/02/11 12:43:03;;;;;;;2.53;1.50;;;9.80;90.60;;;;;;4709587;30;20044;-83
2022/02/11 12:45:36;;;;;;;2.72;1.52;;;9.80;90.90;;;;;;4709441;30;20033;-82
2022/02/11 12:48:04;;;;;;;2.72;1.77;;;9.70;90.80;;;;;;4718771;30;20086;-83
2022/02/11 12:50:39;;;;;;;2.60;1.70;;;9.70;91.10;;;;;;4724386;30;20041;-83
2022/02/11 12:53:07;;;;;;;2.90;1.95;;;9.70;91.10;;;;;;4724060;30;20047;-83
2022/02/11 12:55:37;;;;;;;4.03;1.42;;;9.70;91.40;;;;;;4722555;30;20214;-83
2022/02/11 12:58:07;;;;;;;3.00;1.90;;;9.60;91.20;;;;;;4708672;30;20048;-82
2022/02/11 13:00:35;;;;;;;5.07;1.70;;;9.60;91.60;;;;;;4721252;30;20092;-82
2022/02/11 13:03:03;;;;;;;3.28;2.13;;;9.60;91.70;;;;;;4724493;30;20029;-82
2022/02/11 13:05:32;;;;;;;2.67;1.80;;;9.70;91.40;;;;;;4719047;30;20029;-82
2022/02/11 13:08:00;;;;;;;2.70;1.88;;;9.70;91.40;;;;;;4724256;30;20477;-81
2022/02/11 13:10:28;;;;;;;4.63;1.80;;;9.70;91.90;;;;;;4709651;30;20108;-83
2022/02/11 13:13:27;;;;;;;1.98;1.17;;;9.70;92.00;;;;;;4722765;30;20244;-82
2022/02/11 13:16:03;;;;;;;1.33;0.95;;;9.60;91.00;;;;;;4737176;30;20037;-83
2022/02/11 13:18:33;;;;;;;1.40;0.65;;;9.40;91.40;;;;;;4701385;30;20108;-84
2022/02/11 13:21:04;;;;;;;1.70;0.65;;;9.30;90.80;;;;;;4718960;30;20091;-83
2022/02/11 13:23:30;;;;;;;1.58;0.50;;;9.20;91.50;;;;;;4722804;30;20113;-83
2022/02/11 13:25:57;;;;;;;0.63;0.47;;;9.10;90.90;;;;;;4708172;30;20045;-83
2022/02/11 13:28:24;;;;;;;1.42;0.63;;;9.00;90.60;;;;;;4736895;30;20340;-82
2022/02/11 13:31:00;;;;;;;1.60;0.73;;;8.90;90.40;;;;;;4696292;30;20060;-83
2022/02/11 13:33:31;;;;;;;1.77;0.65;;;8.90;89.90;;;;;;4706181;30;20043;-83
2022/02/11 13:35:59;;;;;;;1.88;0.60;;;8.90;89.50;;;;;;4724273;30;20269;-83
2022/02/11 13:38:26;;;;;;;1.90;0.80;;;8.90;89.00;;;;;;4723264;30;20052;-83
2022/02/11 13:40:54;;;;;;;;;;;8.80;88.30;;;;;;4726767;30;20043;-83
2022/02/11 13:43:20;;;;;;;1.25;0.80;;;8.80;86.90;;;;;;4722210;30;19949;-83
2022/02/11 13:45:55;;;;;;;0.63;0.32;;;8.80;87.30;;;;;;4725375;30;20036;-83
2022/02/11 13:48:27;;;;;;;1.90;0.68;;;8.90;87.70;;;;;;4720783;30;20060;-82
2022/02/11 13:51:06;;;;;;;1.23;0.80;;;9.00;87.50;;;;;;4722357;30;20052;-83
2022/02/11 13:53:36;;;;;;;1.55;0.70;;;9.00;86.60;;;;;;4726468;30;20084;-84
2022/02/11 13:56:05;;;;;;;2.47;0.73;;;9.10;86.20;;;;;;4725974;30;20122;-83
2022/02/11 13:58:33;;;;;;;1.23;0.60;;;9.20;86.50;;;;;;4720981;30;20066;-83
2022/02/11 14:01:03;;;;;;;3.83;0.80;;;9.20;85.80;;;;;;4702710;30;20037;-83
2022/02/11 14:03:31;;;;;;;0.70;0.60;;;9.30;85.30;;;;;;4698531;30;20041;-83
2022/02/11 14:06:01;;;;;;;1.58;1.27;;;9.20;85.00;;;;;;4727073;30;20341;-83
2022/02/11 14:08:46;;;;;;;1.80;0.90;;;9.30;84.70;;;;;;4709721;30;20034;-83
2022/02/11 14:11:19;;;;;;;1.25;0.80;;;9.30;83.50;;;;;;4706635;30;20072;-83
2022/02/11 14:13:49;;;;;;;1.45;0.90;;;9.30;83.60;;;;;;4712387;30;20049;-83
2022/02/11 14:16:16;;;;;;;1.52;0.80;;;9.20;80.90;;;;;;4703102;30;20100;-83
2022/02/11 14:18:43;;;;;;;2.10;0.55;;;9.30;81.90;;;;;;4735960;30;20115;-83
2022/02/11 14:21:13;;;;;;;1.60;0.80;;;9.30;80.80;;;;;;4716736;30;20237;-83
2022/02/11 14:23:39;;;;;;;4.78;1.63;;;9.30;79.80;;;;;;4706638;30;20352;-83
2022/02/11 14:26:05;;;;;;;0.90;0.63;;;9.40;79.70;;;;;;4727161;30;20037;-82
2022/02/11 14:28:31;;;;;;;3.40;1.08;;;9.20;78.20;;;;;;4701260;30;20329;-83
2022/02/11 14:30:57;;;;;;;1.73;0.82;;;9.20;78.20;;;;;;4712152;30;20383;-83
2022/02/11 14:33:23;;;;;;;2.08;1.10;;;9.20;77.60;;;;;;4726449;30;20033;-83
2022/02/11 14:35:49;;;;;;;1.15;0.73;;;9.30;77.30;;;;;;4712228;30;20055;-83
2022/02/11 14:38:15;;;;;;;1.67;0.73;;;9.30;77.00;;;;;;4710028;30;20041;-83
2022/02/11 14:43:26;;;;;;;1.52;0.80;;;9.30;74.70;;;;;;4722003;30;20029;-83
2022/02/11 14:45:51;;;;;;;2.33;0.90;;;9.40;75.00;;;;;;4711816;30;20056;-83
2022/02/11 14:48:17;;;;;;;2.25;0.77;;;9.30;72.10;;;;;;4697028;30;20266;-83
2022/02/11 14:50:43;;;;;;;2.03;0.88;;;9.30;72.50;;;;;;4697096;30;20044;-83
2022/02/11 14:53:10;;;;;;;2.50;0.80;;;9.30;71.90;;;;;;4711888;30;20374;-83
2022/02/11 14:55:35;;;;;;;2.92;0.95;;;9.30;72.90;;;;;;4709043;30;20048;-82
2022/02/11 14:58:02;;;;;;;1.40;0.70;;;9.30;72.10;;;;;;4710418;30;20041;-83
2022/02/11 15:00:29;;;;;;;1.13;0.75;;;9.20;72.20;;;;;;4708579;30;20116;-83
2022/02/11 15:02:56;;;;;;;1.70;0.82;;;9.20;72.30;;;;;;4708122;30;20030;-82
2022/02/11 15:05:22;;;;;;;2.78;1.05;;;9.20;71.90;;;;;;4724916;30;20033;-82
2022/02/11 15:07:48;;;;;;;1.40;0.80;;;9.10;72.20;;;;;;4696017;30;20348;-82
2022/02/11 15:10:15;;;;;;;3.92;0.93;;;9.10;72.40;;;;;;4690971;30;20062;-82
2022/02/11 15:12:41;;;;;;;4.63;1.60;;;9.10;71.70;;;;;;4710084;30;20045;-82
2022/02/11 15:15:07;;;;;;;2.95;1.27;;;9.10;72.30;;;;;;4697003;30;20052;-82
2022/02/11 15:17:33;;;;;;;1.58;0.98;;;9.10;72.80;;;;;;4725693;30;20089;-82
2022/02/11 15:19:59;;;;;;;1.55;0.82;;;9.10;72.20;;;;;;4722329;30;20495;-83
2022/02/11 15:22:25;;;;;;;3.15;1.23;;;9.00;71.60;;;;;;4710099;30;20052;-82
2022/02/11 15:24:50;;;;;;;3.08;1.30;;;9.00;70.90;;;;;;4710967;30;20033;-82
2022/02/11 15:27:17;;;;;;;1.95;0.88;;;9.00;69.90;;;;;;4693789;30;20169;-82
2022/02/11 15:29:43;;;;;;;4.90;1.23;;;9.00;68.20;;;;;;4709837;30;20045;-83
2022/02/11 15:32:10;;;;;;;1.87;1.00;;;8.90;67.80;;;;;;4722938;30;20105;-82
2022/02/11 15:34:37;;;;;;;5.75;2.75;;;8.90;67.70;;;;;;4708850;30;20296;-83
2022/02/11 15:37:04;;;;;;;;;;;8.90;66.40;;;;;;4726047;30;20226;-83
2022/02/11 15:39:30;;;;;;;9.82;3.80;;;8.90;66.70;;;;;;4725645;30;19917;-84
2022/02/11 15:41:55;;;;;;;12.15;5.00;;;8.90;66.70;;;;;;4711354;30;20065;-84
2022/02/11 15:44:21;;;;;;;5.35;1.70;;;8.90;67.40;;;;;;4708059;30;20325;-83
2022/02/11 15:46:50;;;;;;;7.28;2.35;;;8.80;66.00;;;;;;4708542;30;20087;-83
2022/02/11 15:49:15;;;;;;;4.18;1.25;;;8.80;66.30;;;;;;4717856;30;20049;-82
2022/02/11 15:51:41;;;;;;;24.58;12.77;;;8.80;65.20;;;;;;4722311;30;20113;-83
2022/02/11 15:54:07;;;;;;;6.80;2.50;;;8.80;65.20;;;;;;4724425;30;20045;-83
2022/02/11 15:56:33;;;;;;;5.68;3.38;;;8.80;66.00;;;;;;4707504;30;20054;-83
2022/02/11 15:58:59;;;;;;;6.53;2.33;;;8.80;66.20;;;;;;4706543;30;20033;-83
2022/02/11 16:01:24;;;;;;;6.95;2.75;;;8.80;66.70;;;;;;4682038;30;20079;-83
2022/02/11 16:03:50;;;;;;;7.57;3.28;;;8.80;65.70;;;;;;4710501;30;20041;-83
2022/02/11 16:06:16;;;;;;;4.57;1.40;;;8.70;65.70;;;;;;4710511;30;20436;-83
2022/02/11 16:08:42;;;;;;;6.78;3.58;;;8.80;66.20;;;;;;4710730;30;20316;-83
2022/02/11 16:11:08;;;;;;;3.85;1.85;;;8.70;66.00;;;;;;4695603;30;20363;-83
2022/02/11 16:13:33;;;;;;;6.82;1.75;;;8.80;66.10;;;;;;4704313;30;20043;-82
2022/02/11 16:15:59;;;;;;;3.63;1.20;;;8.70;66.40;;;;;;4701876;30;20052;-82
2022/02/11 16:18:27;;;;;;;3.63;1.15;;;8.70;67.00;;;;;;4707376;30;20045;-82
2022/02/11 16:20:55;;;;;;;5.65;1.23;;;8.70;67.00;;;;;;4709477;30;20052;-82
2022/02/11 16:23:23;;;;;;;3.85;1.48;;;8.70;67.20;;;;;;4695434;30;20037;-82
2022/02/11 16:25:50;;;;;;;3.15;1.58;;;8.70;67.20;;;;;;4735027;30;20032;-82
2022/02/11 16:28:18;;;;;;;3.15;1.95;;;8.70;67.40;;;;;;4710263;30;20060;-82
2022/02/11 16:30:46;;;;;;;5.22;1.00;;;8.70;67.40;;;;;;4710075;30;20045;-82
2022/02/11 16:33:13;;;;;;;2.45;0.88;;;8.60;66.60;;;;;;4723298;30;20041;-82
2022/02/11 16:35:40;;;;;;;1.50;0.80;;;8.60;66.60;;;;;;4708695;30;20060;-82
2022/02/11 16:38:11;;;;;;;2.15;1.02;;;8.60;66.20;;;;;;4715484;30;20045;-82
2022/02/11 16:40:38;;;;;;;3.03;1.33;;;8.50;65.70;;;;;;4717634;30;20036;-82
2022/02/11 16:43:04;;;;;;;;;;;8.50;66.50;;;;;;4709558;30;20302;-82
2022/02/11 16:45:36;;;;;;;3.50;1.20;;;8.50;66.20;;;;;;4733251;30;19919;-82
2022/02/11 16:48:02;;;;;;;3.92;1.30;;;8.50;67.00;;;;;;4708710;30;20072;-83
2022/02/11 16:50:29;;;;;;;2.78;1.52;;;8.50;67.10;;;;;;4688313;30;20356;-81
2022/02/11 16:52:54;;;;;;;5.80;1.10;;;8.50;67.10;;;;;;4707775;30;20249;-82
2022/02/11 16:55:20;;;;;;;2.53;1.00;;;8.50;66.80;;;;;;4704073;30;20116;-82
2022/02/11 16:57:46;;;;;;;6.15;1.30;;;8.40;66.40;;;;;;4708937;30;20037;-83
2022/02/11 17:00:13;;;;;;;2.75;0.90;;;8.40;66.70;;;;;;4703032;30;20060;-83
2022/02/11 17:02:39;;;;;;;3.13;1.52;;;8.40;66.10;;;;;;4706180;30;20290;-82
2022/02/11 17:05:07;;;;;;;1.88;1.10;;;8.30;66.80;;;;;;4705219;30;20160;-82
2022/02/11 17:07:34;;;;;;;2.45;1.13;;;8.30;66.10;;;;;;4705840;30;20079;-82
2022/02/11 17:10:03;;;;;;;6.65;1.38;;;8.30;66.50;;;;;;4701513;30;20044;-83
2022/02/11 17:12:32;;;;;;;4.35;1.70;;;8.30;66.70;;;;;;4716223;30;20034;-82
2022/02/11 17:15:03;;;;;;;6.85;2.40;;;8.20;66.10;;;;;;4723329;30;20119;-83
2022/02/11 17:17:28;;;;;;;;;;;8.20;67.00;;;;;;4726176;30;20040;-82
2022/02/11 17:19:54;;;;;;;4.40;2.37;;;8.20;66.70;;;;;;4720930;30;19922;-83
2022/02/11 17:22:20;;;;;;;5.03;1.60;;;8.20;67.00;;;;;;4708543;30;20029;-82
2022/02/11 17:24:49;;;;;;;3.38;1.40;;;8.10;67.00;;;;;;4725562;30;20049;-84
2022/02/11 17:27:16;;;;;;;8.70;1.67;;;8.10;67.40;;;;;;4731003;30;20036;-82
2022/02/11 17:29:42;;;;;;;4.25;1.35;;;8.20;67.50;;;;;;4704109;30;20097;-82
2022/02/11 17:32:11;;;;;;;5.15;1.10;;;8.20;67.00;;;;;;4724124;30;20228;-82
2022/02/11 17:34:40;;;;;;;2.70;1.35;;;8.10;67.10;;;;;;4728740;30;20147;-83
2022/02/11 17:37:07;;;;;;;5.65;1.38;;;8.10;67.30;;;;;;4721158;30;20374;-83
2022/02/11 17:39:33;;;;;;;2.40;1.20;;;8.10;67.20;;;;;;4723944;30;20108;-84
2022/02/11 17:42:04;;;;;;;3.27;1.13;;;8.00;67.30;;;;;;4744196;30;20037;-82
2022/02/11 17:44:30;;;;;;;3.83;1.70;;;8.00;67.10;;;;;;4729672;30;20302;-83
2022/02/11 17:46:56;;;;;;;2.97;1.77;;;8.00;67.20;;;;;;4721689;30;20104;-83
2022/02/11 17:49:22;;;;;;;10.70;2.13;;;7.90;67.00;;;;;;4695087;30;20045;-82
2022/02/11 17:51:49;;;;;;;5.60;1.90;;;7.80;67.20;;;;;;4707547;30;20217;-82